createdAt,value
2023-01-09T00:05:57.583Z,0.40
2023-01-09T00:21:01.858Z,0.50
2023-01-09T00:36:04.717Z,0.30
2023-01-09T00:51:08.265Z,0.73
2023-01-09T01:06:30.208Z,0.77
2023-01-09T01:21:32.704Z,0.70
2023-01-09T01:36:35.336Z,0.70
2023-01-09T01:51:42.869Z,0.67
2023-01-09T02:06:48.819Z,1.00
2023-01-09T02:21:54.120Z,0.90
2023-01-09T02:37:32.110Z,1.07
2023-01-09T02:52:49.631Z,1.10
2023-01-09T03:08:03.056Z,1.30
2023-01-09T03:23:07.598Z,1.43
2023-01-09T03:38:11.746Z,1.47
2023-01-09T03:53:14.727Z,0.90
2023-01-09T04:08:18.671Z,1.37
2023-01-09T04:23:21.177Z,1.30
2023-01-09T04:38:23.760Z,1.00
2023-01-09T04:53:26.156Z,1.60
2023-01-09T05:08:28.674Z,1.20
2023-01-09T05:23:31.136Z,1.20
2023-01-09T05:38:33.736Z,1.90
2023-01-09T05:53:36.256Z,1.20
2023-01-09T06:08:38.739Z,1.10
2023-01-09T06:23:41.227Z,1.60
2023-01-09T06:38:44.391Z,1.60
2023-01-09T06:53:46.814Z,1.50
2023-01-09T07:08:49.365Z,1.60
2023-01-09T07:23:51.913Z,1.30
2023-01-09T07:38:54.379Z,1.40
2023-01-09T07:53:56.836Z,1.33
2023-01-09T08:08:59.567Z,1.63
2023-01-09T08:24:02.169Z,1.30
2023-01-09T08:39:04.693Z,1.17
2023-01-09T08:54:07.218Z,1.10
2023-01-09T09:09:10.668Z,1.10
2023-01-09T09:24:13.364Z,1.27
2023-01-09T09:39:15.898Z,1.40
2023-01-09T09:54:20.705Z,1.23
2023-01-09T10:09:49.498Z,1.10
2023-01-09T10:25:10.971Z,1.43
2023-01-09T10:40:27.093Z,0.90
2023-01-09T10:55:47.641Z,1.00
2023-01-09T11:10:58.597Z,0.70
2023-01-09T11:26:02.655Z,0.80
2023-01-09T11:41:06.704Z,0.60
2023-01-09T11:56:10.185Z,0.73
2023-01-09T12:11:23.153Z,0.83
2023-01-09T12:26:31.237Z,1.23
2023-01-09T12:41:55.510Z,1.63
2023-01-09T12:57:02.969Z,1.20
2023-01-09T13:12:12.710Z,1.30
2023-01-09T13:27:21.539Z,1.20
2023-01-09T13:42:38.401Z,1.27
2023-01-09T13:58:13.695Z,1.30
2023-01-09T14:13:40.431Z,1.33
2023-01-09T14:28:44.002Z,1.50
2023-01-09T14:44:03.669Z,1.90
2023-01-09T14:59:12.746Z,1.73
2023-01-09T15:14:34.272Z,1.90
2023-01-09T15:29:36.907Z,1.80
2023-01-09T15:44:42.622Z,2.60
2023-01-09T15:59:45.081Z,2.43
2023-01-09T16:14:59.371Z,3.03
2023-01-09T16:30:22.248Z,3.40
2023-01-09T16:45:35.014Z,2.63
2023-01-09T17:00:37.562Z,2.67
2023-01-09T17:15:40.258Z,2.90
2023-01-09T17:30:42.899Z,3.80
2023-01-09T17:45:45.664Z,3.37
2023-01-09T18:00:48.371Z,3.53
2023-01-09T18:15:51.006Z,3.30
2023-01-09T18:30:53.861Z,3.30
2023-01-09T18:45:56.952Z,3.23
2023-01-09T19:01:01.103Z,3.30
2023-01-09T19:16:05.584Z,3.10
2023-01-09T19:31:08.311Z,3.17
2023-01-09T19:46:13.958Z,4.73
2023-01-09T20:01:19.835Z,3.90
2023-01-09T20:16:28.554Z,5.33
2023-01-09T20:31:33.032Z,2.63
2023-01-09T20:46:41.669Z,3.23
2023-01-09T21:01:44.304Z,3.80
2023-01-09T21:16:54.651Z,3.20
2023-01-09T21:31:57.856Z,4.90
2023-01-09T21:47:02.220Z,3.90
2023-01-09T22:02:05.018Z,4.83
2023-01-09T22:17:07.571Z,4.53
2023-01-09T22:32:10.125Z,3.50
2023-01-09T22:47:12.737Z,3.20
2023-01-09T23:02:16.761Z,2.60
2023-01-09T23:17:19.325Z,2.30
2023-01-09T23:32:21.899Z,2.13
2023-01-09T23:47:24.492Z,2.27
